sensor_id;sensor_type;location;lat;lon;timestamp;P1;durP1;ratioP1;P2;durP2;ratioP2
10479;SDS011;12789;42.610;23.040;2023-08-17T00:00:03;11.00;;;9.63;;
10479;SDS011;12789;42.610;23.040;2023-08-17T00:02:34;10.18;;;9.20;;
10479;SDS011;12789;42.610;23.040;2023-08-17T00:05:03;11.90;;;10.02;;
10479;SDS011;12789;42.610;23.040;2023-08-17T00:07:30;11.30;;;9.70;;
10479;SDS011;12789;42.610;23.040;2023-08-17T00:09:57;10.30;;;8.75;;
10479;SDS011;12789;42.610;23.040;2023-08-17T00:12:23;10.95;;;9.65;;
10479;SDS011;12789;42.610;23.040;2023-08-17T00:14:50;11.23;;;9.70;;
10479;SDS011;12789;42.610;23.040;2023-08-17T00:17:17;11.40;;;10.23;;
10479;SDS011;12789;42.610;23.040;2023-08-17T00:19:44;10.07;;;9.13;;
10479;SDS011;12789;42.610;23.040;2023-08-17T00:22:12;10.75;;;9.80;;
10479;SDS011;12789;42.610;23.040;2023-08-17T00:24:39;10.93;;;9.80;;
10479;SDS011;12789;42.610;23.040;2023-08-17T00:27:08;10.63;;;9.65;;
10479;SDS011;12789;42.610;23.040;2023-08-17T00:29:36;10.82;;;9.82;;
10479;SDS011;12789;42.610;23.040;2023-08-17T00:32:04;11.63;;;10.48;;
10479;SDS011;12789;42.610;23.040;2023-08-17T00:34:34;10.90;;;9.80;;
10479;SDS011;12789;42.610;23.040;2023-08-17T00:37:01;10.73;;;9.63;;
10479;SDS011;12789;42.610;23.040;2023-08-17T00:39:29;12.05;;;10.75;;
10479;SDS011;12789;42.610;23.040;2023-08-17T00:41:56;11.27;;;10.25;;
10479;SDS011;12789;42.610;23.040;2023-08-17T00:44:23;11.57;;;10.57;;
10479;SDS011;12789;42.610;23.040;2023-08-17T00:46:50;11.55;;;10.45;;
10479;SDS011;12789;42.610;23.040;2023-08-17T00:49:17;17.35;;;10.32;;
10479;SDS011;12789;42.610;23.040;2023-08-17T00:51:45;13.10;;;10.77;;
10479;SDS011;12789;42.610;23.040;2023-08-17T00:54:11;13.25;;;10.63;;
10479;SDS011;12789;42.610;23.040;2023-08-17T00:56:40;12.45;;;10.93;;
10479;SDS011;12789;42.610;23.040;2023-08-17T00:59:07;15.25;;;11.00;;
10479;SDS011;12789;42.610;23.040;2023-08-17T01:01:35;14.63;;;11.38;;
10479;SDS011;12789;42.610;23.040;2023-08-17T01:04:02;16.15;;;10.93;;
10479;SDS011;12789;42.610;23.040;2023-08-17T01:06:28;15.50;;;11.25;;
10479;SDS011;12789;42.610;23.040;2023-08-17T01:08:55;14.27;;;11.02;;
10479;SDS011;12789;42.610;23.040;2023-08-17T01:11:24;12.23;;;10.68;;
10479;SDS011;12789;42.610;23.040;2023-08-17T01:13:57;17.15;;;10.77;;
10479;SDS011;12789;42.610;23.040;2023-08-17T01:16:26;14.90;;;11.05;;
10479;SDS011;12789;42.610;23.040;2023-08-17T01:18:53;14.05;;;11.25;;
10479;SDS011;12789;42.610;23.040;2023-08-17T01:21:21;12.88;;;11.23;;
10479;SDS011;12789;42.610;23.040;2023-08-17T01:23:51;13.85;;;10.95;;
10479;SDS011;12789;42.610;23.040;2023-08-17T01:26:18;12.48;;;11.18;;
10479;SDS011;12789;42.610;23.040;2023-08-17T01:28:44;16.23;;;11.55;;
10479;SDS011;12789;42.610;23.040;2023-08-17T01:31:13;12.90;;;11.52;;
10479;SDS011;12789;42.610;23.040;2023-08-17T01:33:42;13.45;;;11.20;;
10479;SDS011;12789;42.610;23.040;2023-08-17T01:36:11;13.98;;;11.48;;
10479;SDS011;12789;42.610;23.040;2023-08-17T01:38:39;13.02;;;11.27;;
10479;SDS011;12789;42.610;23.040;2023-08-17T01:41:10;12.00;;;10.80;;
10479;SDS011;12789;42.610;23.040;2023-08-17T01:43:40;12.77;;;11.48;;
10479;SDS011;12789;42.610;23.040;2023-08-17T01:46:12;12.70;;;11.50;;
10479;SDS011;12789;42.610;23.040;2023-08-17T01:48:39;12.93;;;11.20;;
10479;SDS011;12789;42.610;23.040;2023-08-17T01:51:05;13.27;;;11.82;;
10479;SDS011;12789;42.610;23.040;2023-08-17T01:53:32;14.18;;;12.00;;
10479;SDS011;12789;42.610;23.040;2023-08-17T01:55:59;12.95;;;11.15;;
10479;SDS011;12789;42.610;23.040;2023-08-17T01:58:27;12.38;;;11.15;;
10479;SDS011;12789;42.610;23.040;2023-08-17T02:00:54;12.50;;;11.10;;
10479;SDS011;12789;42.610;23.040;2023-08-17T02:03:21;11.82;;;10.80;;
10479;SDS011;12789;42.610;23.040;2023-08-17T02:05:47;12.23;;;11.13;;
10479;SDS011;12789;42.610;23.040;2023-08-17T02:08:14;12.95;;;11.85;;
10479;SDS011;12789;42.610;23.040;2023-08-17T02:10:41;12.82;;;11.52;;
10479;SDS011;12789;42.610;23.040;2023-08-17T02:13:08;12.98;;;11.77;;
10479;SDS011;12789;42.610;23.040;2023-08-17T02:15:39;13.30;;;11.90;;
10479;SDS011;12789;42.610;23.040;2023-08-17T02:18:06;17.48;;;12.88;;
10479;SDS011;12789;42.610;23.040;2023-08-17T02:20:33;13.90;;;12.55;;
10479;SDS011;12789;42.610;23.040;2023-08-17T02:23:01;15.57;;;13.05;;
10479;SDS011;12789;42.610;23.040;2023-08-17T02:25:30;13.63;;;12.23;;
10479;SDS011;12789;42.610;23.040;2023-08-17T02:28:00;16.48;;;13.23;;
10479;SDS011;12789;42.610;23.040;2023-08-17T02:30:30;13.38;;;12.10;;
10479;SDS011;12789;42.610;23.040;2023-08-17T02:32:59;16.02;;;12.82;;
10479;SDS011;12789;42.610;23.040;2023-08-17T02:35:25;13.98;;;12.57;;
10479;SDS011;12789;42.610;23.040;2023-08-17T02:37:52;15.05;;;13.27;;
10479;SDS011;12789;42.610;23.040;2023-08-17T02:40:19;14.52;;;13.07;;
10479;SDS011;12789;42.610;23.040;2023-08-17T02:42:45;16.33;;;12.32;;
10479;SDS011;12789;42.610;23.040;2023-08-17T02:45:13;15.82;;;12.38;;
10479;SDS011;12789;42.610;23.040;2023-08-17T02:47:42;14.48;;;13.13;;
10479;SDS011;12789;42.610;23.040;2023-08-17T02:50:11;15.88;;;12.23;;
10479;SDS011;12789;42.610;23.040;2023-08-17T02:52:38;14.02;;;12.38;;
10479;SDS011;12789;42.610;23.040;2023-08-17T02:55:05;16.73;;;12.57;;
10479;SDS011;12789;42.610;23.040;2023-08-17T02:57:37;14.30;;;12.25;;
10479;SDS011;12789;42.610;23.040;2023-08-17T03:00:05;13.68;;;12.00;;
10479;SDS011;12789;42.610;23.040;2023-08-17T03:02:31;13.98;;;12.70;;
10479;SDS011;12789;42.610;23.040;2023-08-17T03:04:58;15.75;;;12.43;;
10479;SDS011;12789;42.610;23.040;2023-08-17T03:07:27;13.05;;;11.75;;
10479;SDS011;12789;42.610;23.040;2023-08-17T03:09:54;13.25;;;11.45;;
10479;SDS011;12789;42.610;23.040;2023-08-17T03:12:21;13.70;;;12.13;;
10479;SDS011;12789;42.610;23.040;2023-08-17T03:14:50;13.88;;;12.18;;
10479;SDS011;12789;42.610;23.040;2023-08-17T03:17:17;15.65;;;12.55;;
10479;SDS011;12789;42.610;23.040;2023-08-17T03:19:44;13.73;;;12.05;;
10479;SDS011;12789;42.610;23.040;2023-08-17T03:22:14;16.80;;;12.27;;
10479;SDS011;12789;42.610;23.040;2023-08-17T03:24:42;17.30;;;11.90;;
10479;SDS011;12789;42.610;23.040;2023-08-17T03:27:11;13.57;;;12.18;;
10479;SDS011;12789;42.610;23.040;2023-08-17T03:29:38;14.07;;;11.60;;
10479;SDS011;12789;42.610;23.040;2023-08-17T03:32:05;12.93;;;11.63;;
10479;SDS011;12789;42.610;23.040;2023-08-17T03:34:31;13.82;;;11.57;;
10479;SDS011;12789;42.610;23.040;2023-08-17T03:36:58;14.15;;;11.85;;
10479;SDS011;12789;42.610;23.040;2023-08-17T03:39:25;16.33;;;12.10;;
10479;SDS011;12789;42.610;23.040;2023-08-17T03:41:53;16.17;;;11.95;;
10479;SDS011;12789;42.610;23.040;2023-08-17T03:44:19;17.35;;;11.95;;
10479;SDS011;12789;42.610;23.040;2023-08-17T03:46:57;14.40;;;11.73;;
10479;SDS011;12789;42.610;23.040;2023-08-17T03:49:24;16.88;;;12.77;;
10479;SDS011;12789;42.610;23.040;2023-08-17T03:51:50;20.85;;;14.35;;
10479;SDS011;12789;42.610;23.040;2023-08-17T03:54:17;16.40;;;13.07;;
10479;SDS011;12789;42.610;23.040;2023-08-17T03:56:44;20.77;;;12.77;;
10479;SDS011;12789;42.610;23.040;2023-08-17T03:59:12;16.38;;;12.70;;
10479;SDS011;12789;42.610;23.040;2023-08-17T04:01:38;15.45;;;12.73;;
10479;SDS011;12789;42.610;23.040;2023-08-17T04:04:05;21.83;;;12.32;;
10479;SDS011;12789;42.610;23.040;2023-08-17T04:06:32;16.20;;;12.38;;
10479;SDS011;12789;42.610;23.040;2023-08-17T04:08:58;16.02;;;12.00;;
10479;SDS011;12789;42.610;23.040;2023-08-17T04:11:25;15.93;;;12.05;;
10479;SDS011;12789;42.610;23.040;2023-08-17T04:13:52;19.05;;;11.65;;
10479;SDS011;12789;42.610;23.040;2023-08-17T04:16:20;17.98;;;12.00;;
10479;SDS011;12789;42.610;23.040;2023-08-17T04:18:47;19.95;;;11.45;;
10479;SDS011;12789;42.610;23.040;2023-08-17T04:21:13;12.85;;;11.35;;
10479;SDS011;12789;42.610;23.040;2023-08-17T04:23:40;16.85;;;12.02;;
10479;SDS011;12789;42.610;23.040;2023-08-17T04:26:07;15.25;;;12.02;;
10479;SDS011;12789;42.610;23.040;2023-08-17T04:28:34;16.65;;;12.40;;
10479;SDS011;12789;42.610;23.040;2023-08-17T04:31:01;12.55;;;11.15;;
10479;SDS011;12789;42.610;23.040;2023-08-17T04:33:30;14.43;;;12.93;;
10479;SDS011;12789;42.610;23.040;2023-08-17T04:35:57;14.40;;;11.18;;
10479;SDS011;12789;42.610;23.040;2023-08-17T04:38:24;11.48;;;9.77;;
10479;SDS011;12789;42.610;23.040;2023-08-17T04:40:51;20.63;;;10.75;;
10479;SDS011;12789;42.610;23.040;2023-08-17T04:43:17;28.05;;;11.65;;
10479;SDS011;12789;42.610;23.040;2023-08-17T04:45:45;22.10;;;11.55;;
10479;SDS011;12789;42.610;23.040;2023-08-17T04:48:14;27.05;;;11.52;;
10479;SDS011;12789;42.610;23.040;2023-08-17T04:50:43;33.75;;;12.32;;
10479;SDS011;12789;42.610;23.040;2023-08-17T04:53:09;23.45;;;11.35;;
10479;SDS011;12789;42.610;23.040;2023-08-17T04:55:36;23.85;;;11.10;;
10479;SDS011;12789;42.610;23.040;2023-08-17T04:58:03;23.80;;;10.82;;
10479;SDS011;12789;42.610;23.040;2023-08-17T05:00:30;15.02;;;10.13;;
10479;SDS011;12789;42.610;23.040;2023-08-17T05:02:56;17.25;;;10.38;;
10479;SDS011;12789;42.610;23.040;2023-08-17T05:05:23;15.23;;;9.30;;
10479;SDS011;12789;42.610;23.040;2023-08-17T05:07:52;17.85;;;9.95;;
10479;SDS011;12789;42.610;23.040;2023-08-17T05:10:19;17.27;;;9.70;;
10479;SDS011;12789;42.610;23.040;2023-08-17T05:12:46;15.40;;;9.38;;
10479;SDS011;12789;42.610;23.040;2023-08-17T05:15:13;14.75;;;10.32;;
10479;SDS011;12789;42.610;23.040;2023-08-17T05:17:40;12.93;;;9.77;;
10479;SDS011;12789;42.610;23.040;2023-08-17T05:20:07;16.23;;;10.70;;
10479;SDS011;12789;42.610;23.040;2023-08-17T05:22:37;14.98;;;10.38;;
10479;SDS011;12789;42.610;23.040;2023-08-17T05:25:07;11.60;;;8.85;;
10479;SDS011;12789;42.610;23.040;2023-08-17T05:27:33;9.68;;;8.70;;
10479;SDS011;12789;42.610;23.040;2023-08-17T05:30:00;13.82;;;10.55;;
10479;SDS011;12789;42.610;23.040;2023-08-17T05:32:27;10.35;;;9.25;;
10479;SDS011;12789;42.610;23.040;2023-08-17T05:34:53;13.52;;;10.48;;
10479;SDS011;12789;42.610;23.040;2023-08-17T05:37:20;12.02;;;9.48;;
10479;SDS011;12789;42.610;23.040;2023-08-17T05:39:47;16.45;;;11.23;;
10479;SDS011;12789;42.610;23.040;2023-08-17T05:42:16;16.73;;;9.77;;
10479;SDS011;12789;42.610;23.040;2023-08-17T05:44:43;18.58;;;11.23;;
10479;SDS011;12789;42.610;23.040;2023-08-17T05:47:16;12.65;;;9.48;;
10479;SDS011;12789;42.610;23.040;2023-08-17T05:49:44;11.45;;;10.07;;
10479;SDS011;12789;42.610;23.040;2023-08-17T05:52:11;13.77;;;9.95;;
10479;SDS011;12789;42.610;23.040;2023-08-17T05:54:38;13.80;;;9.63;;
10479;SDS011;12789;42.610;23.040;2023-08-17T05:57:05;13.05;;;8.63;;
10479;SDS011;12789;42.610;23.040;2023-08-17T05:59:33;16.40;;;9.63;;
10479;SDS011;12789;42.610;23.040;2023-08-17T06:02:00;11.70;;;8.70;;
10479;SDS011;12789;42.610;23.040;2023-08-17T06:04:26;15.82;;;13.32;;
10479;SDS011;12789;42.610;23.040;2023-08-17T06:06:54;11.25;;;7.97;;
10479;SDS011;12789;42.610;23.040;2023-08-17T06:09:21;12.77;;;8.88;;
10479;SDS011;12789;42.610;23.040;2023-08-17T06:11:48;26.63;;;21.30;;
10479;SDS011;12789;42.610;23.040;2023-08-17T06:14:15;17.10;;;10.68;;
10479;SDS011;12789;42.610;23.040;2023-08-17T06:16:43;10.57;;;8.60;;
10479;SDS011;12789;42.610;23.040;2023-08-17T06:19:10;15.48;;;7.72;;
10479;SDS011;12789;42.610;23.040;2023-08-17T06:21:37;8.30;;;7.38;;
10479;SDS011;12789;42.610;23.040;2023-08-17T06:24:05;9.55;;;6.97;;
10479;SDS011;12789;42.610;23.040;2023-08-17T06:26:32;11.82;;;6.68;;
10479;SDS011;12789;42.610;23.040;2023-08-17T06:28:58;12.48;;;6.63;;
10479;SDS011;12789;42.610;23.040;2023-08-17T06:31:25;7.15;;;6.28;;
10479;SDS011;12789;42.610;23.040;2023-08-17T06:33:54;10.57;;;6.43;;
10479;SDS011;12789;42.610;23.040;2023-08-17T06:36:21;7.95;;;5.70;;
10479;SDS011;12789;42.610;23.040;2023-08-17T06:38:47;8.05;;;5.68;;
10479;SDS011;12789;42.610;23.040;2023-08-17T06:41:15;6.93;;;5.45;;
10479;SDS011;12789;42.610;23.040;2023-08-17T06:43:56;7.32;;;5.90;;
10479;SDS011;12789;42.610;23.040;2023-08-17T06:46:22;7.93;;;5.80;;
10479;SDS011;12789;42.610;23.040;2023-08-17T06:48:55;6.75;;;5.47;;
10479;SDS011;12789;42.610;23.040;2023-08-17T06:51:21;7.35;;;4.18;;
10479;SDS011;12789;42.610;23.040;2023-08-17T06:53:50;9.45;;;4.47;;
10479;SDS011;12789;42.610;23.040;2023-08-17T06:56:18;277.92;;;28.40;;
10479;SDS011;12789;42.610;23.040;2023-08-17T06:58:44;30.30;;;6.25;;
10479;SDS011;12789;42.610;23.040;2023-08-17T07:01:11;11.50;;;4.55;;
10479;SDS011;12789;42.610;23.040;2023-08-17T07:03:39;9.45;;;4.60;;
10479;SDS011;12789;42.610;23.040;2023-08-17T07:06:08;8.20;;;4.07;;
10479;SDS011;12789;42.610;23.040;2023-08-17T07:08:35;5.93;;;4.28;;
10479;SDS011;12789;42.610;23.040;2023-08-17T07:11:01;4.32;;;3.50;;
10479;SDS011;12789;42.610;23.040;2023-08-17T07:13:30;9.27;;;4.10;;
10479;SDS011;12789;42.610;23.040;2023-08-17T07:15:57;10.48;;;3.85;;
10479;SDS011;12789;42.610;23.040;2023-08-17T07:18:24;8.05;;;3.63;;
10479;SDS011;12789;42.610;23.040;2023-08-17T07:20:51;5.70;;;3.65;;
10479;SDS011;12789;42.610;23.040;2023-08-17T07:23:18;6.47;;;3.50;;
10479;SDS011;12789;42.610;23.040;2023-08-17T07:25:45;4.68;;;3.20;;
10479;SDS011;12789;42.610;23.040;2023-08-17T07:28:12;4.55;;;3.67;;
10479;SDS011;12789;42.610;23.040;2023-08-17T07:30:41;6.13;;;3.20;;
10479;SDS011;12789;42.610;23.040;2023-08-17T07:33:08;5.32;;;3.25;;
10479;SDS011;12789;42.610;23.040;2023-08-17T07:35:35;8.02;;;3.55;;
10479;SDS011;12789;42.610;23.040;2023-08-17T07:38:02;3.90;;;3.03;;
10479;SDS011;12789;42.610;23.040;2023-08-17T07:40:30;5.07;;;3.22;;
10479;SDS011;12789;42.610;23.040;2023-08-17T07:42:57;4.38;;;3.80;;
10479;SDS011;12789;42.610;23.040;2023-08-17T07:45:24;4.68;;;3.10;;
10479;SDS011;12789;42.610;23.040;2023-08-17T07:47:51;6.45;;;3.65;;
10479;SDS011;12789;42.610;23.040;2023-08-17T07:50:19;5.25;;;3.33;;
10479;SDS011;12789;42.610;23.040;2023-08-17T07:52:47;5.15;;;3.10;;
10479;SDS011;12789;42.610;23.040;2023-08-17T07:55:15;6.53;;;3.75;;
10479;SDS011;12789;42.610;23.040;2023-08-17T07:57:45;4.75;;;2.88;;
10479;SDS011;12789;42.610;23.040;2023-08-17T08:00:15;6.15;;;3.20;;
10479;SDS011;12789;42.610;23.040;2023-08-17T08:02:42;5.70;;;3.05;;
10479;SDS011;12789;42.610;23.040;2023-08-17T08:05:09;6.63;;;2.97;;
10479;SDS011;12789;42.610;23.040;2023-08-17T08:07:36;5.43;;;3.17;;
10479;SDS011;12789;42.610;23.040;2023-08-17T08:10:06;23.88;;;19.05;;
10479;SDS011;12789;42.610;23.040;2023-08-17T08:12:33;8.00;;;3.53;;
10479;SDS011;12789;42.610;23.040;2023-08-17T08:15:01;4.72;;;2.72;;
10479;SDS011;12789;42.610;23.040;2023-08-17T08:17:30;10.25;;;2.90;;
10479;SDS011;12789;42.610;23.040;2023-08-17T08:19:56;5.18;;;3.10;;
10479;SDS011;12789;42.610;23.040;2023-08-17T08:22:24;4.75;;;3.22;;
10479;SDS011;12789;42.610;23.040;2023-08-17T08:24:51;7.00;;;2.97;;
10479;SDS011;12789;42.610;23.040;2023-08-17T08:27:19;15.98;;;8.98;;
10479;SDS011;12789;42.610;23.040;2023-08-17T08:29:47;10.05;;;3.65;;
10479;SDS011;12789;42.610;23.040;2023-08-17T08:32:15;2.88;;;2.67;;
10479;SDS011;12789;42.610;23.040;2023-08-17T08:34:43;8.35;;;3.10;;
10479;SDS011;12789;42.610;23.040;2023-08-17T08:37:10;4.32;;;2.63;;
10479;SDS011;12789;42.610;23.040;2023-08-17T08:39:47;5.30;;;2.50;;
10479;SDS011;12789;42.610;23.040;2023-08-17T08:42:13;5.05;;;2.40;;
10479;SDS011;12789;42.610;23.040;2023-08-17T08:44:40;8.43;;;2.50;;
10479;SDS011;12789;42.610;23.040;2023-08-17T08:47:07;4.07;;;2.40;;
10479;SDS011;12789;42.610;23.040;2023-08-17T08:49:36;3.13;;;2.83;;
10479;SDS011;12789;42.610;23.040;2023-08-17T08:52:06;3.47;;;2.20;;
10479;SDS011;12789;42.610;23.040;2023-08-17T08:54:33;3.65;;;2.35;;
10479;SDS011;12789;42.610;23.040;2023-08-17T08:57:03;2.28;;;2.00;;
10479;SDS011;12789;42.610;23.040;2023-08-17T08:59:31;5.28;;;2.28;;
10479;SDS011;12789;42.610;23.040;2023-08-17T09:02:00;11.15;;;2.30;;
10479;SDS011;12789;42.610;23.040;2023-08-17T09:04:27;6.80;;;2.38;;
10479;SDS011;12789;42.610;23.040;2023-08-17T09:06:57;3.95;;;2.08;;
10479;SDS011;12789;42.610;23.040;2023-08-17T09:09:23;5.22;;;2.15;;
10479;SDS011;12789;42.610;23.040;2023-08-17T09:11:50;8.10;;;2.80;;
10479;SDS011;12789;42.610;23.040;2023-08-17T09:14:17;6.40;;;2.03;;
10479;SDS011;12789;42.610;23.040;2023-08-17T09:16:43;5.40;;;2.17;;
10479;SDS011;12789;42.610;23.040;2023-08-17T09:19:12;7.20;;;2.22;;
10479;SDS011;12789;42.610;23.040;2023-08-17T09:21:39;2.83;;;1.88;;
10479;SDS011;12789;42.610;23.040;2023-08-17T09:24:10;4.45;;;1.90;;
10479;SDS011;12789;42.610;23.040;2023-08-17T09:26:38;2.80;;;2.05;;
10479;SDS011;12789;42.610;23.040;2023-08-17T09:29:16;4.63;;;1.90;;
10479;SDS011;12789;42.610;23.040;2023-08-17T09:31:44;6.50;;;2.33;;
10479;SDS011;12789;42.610;23.040;2023-08-17T09:34:10;5.43;;;2.20;;
10479;SDS011;12789;42.610;23.040;2023-08-17T09:36:38;5.43;;;1.90;;
10479;SDS011;12789;42.610;23.040;2023-08-17T09:39:05;3.90;;;2.50;;
10479;SDS011;12789;42.610;23.040;2023-08-17T09:41:39;1.90;;;1.80;;
10479;SDS011;12789;42.610;23.040;2023-08-17T09:44:07;2.47;;;2.13;;
10479;SDS011;12789;42.610;23.040;2023-08-17T09:46:34;4.47;;;3.38;;
10479;SDS011;12789;42.610;23.040;2023-08-17T09:49:01;3.20;;;2.58;;
10479;SDS011;12789;42.610;23.040;2023-08-17T09:51:29;1.80;;;1.67;;
10479;SDS011;12789;42.610;23.040;2023-08-17T09:53:56;4.90;;;1.92;;
10479;SDS011;12789;42.610;23.040;2023-08-17T09:56:23;5.10;;;2.45;;
10479;SDS011;12789;42.610;23.040;2023-08-17T09:58:52;2.25;;;2.03;;
10479;SDS011;12789;42.610;23.040;2023-08-17T10:01:19;8.25;;;2.30;;
10479;SDS011;12789;42.610;23.040;2023-08-17T10:03:49;2.67;;;1.95;;
10479;SDS011;12789;42.610;23.040;2023-08-17T10:06:20;4.55;;;2.20;;
10479;SDS011;12789;42.610;23.040;2023-08-17T10:08:49;4.95;;;1.95;;
10479;SDS011;12789;42.610;23.040;2023-08-17T10:11:18;5.53;;;1.83;;
10479;SDS011;12789;42.610;23.040;2023-08-17T10:13:46;3.08;;;2.33;;
10479;SDS011;12789;42.610;23.040;2023-08-17T10:16:18;13.77;;;2.05;;
10479;SDS011;12789;42.610;23.040;2023-08-17T10:18:50;10.10;;;2.50;;
10479;SDS011;12789;42.610;23.040;2023-08-17T10:21:21;4.85;;;1.92;;
10479;SDS011;12789;42.610;23.040;2023-08-17T10:23:48;2.22;;;1.77;;
10479;SDS011;12789;42.610;23.040;2023-08-17T10:26:15;4.82;;;1.85;;
10479;SDS011;12789;42.610;23.040;2023-08-17T10:28:44;2.97;;;1.70;;
10479;SDS011;12789;42.610;23.040;2023-08-17T10:31:15;3.67;;;1.75;;
10479;SDS011;12789;42.610;23.040;2023-08-17T10:33:42;2.08;;;1.80;;
10479;SDS011;12789;42.610;23.040;2023-08-17T10:36:11;5.30;;;2.00;;
10479;SDS011;12789;42.610;23.040;2023-08-17T10:38:38;2.45;;;1.65;;
10479;SDS011;12789;42.610;23.040;2023-08-17T10:41:09;12.63;;;2.42;;
10479;SDS011;12789;42.610;23.040;2023-08-17T10:46:19;3.65;;;1.90;;
10479;SDS011;12789;42.610;23.040;2023-08-17T10:48:46;2.20;;;2.00;;
10479;SDS011;12789;42.610;23.040;2023-08-17T10:51:12;4.28;;;1.77;;
10479;SDS011;12789;42.610;23.040;2023-08-17T10:53:40;5.97;;;2.00;;
10479;SDS011;12789;42.610;23.040;2023-08-17T10:56:13;3.67;;;1.92;;
10479;SDS011;12789;42.610;23.040;2023-08-17T10:58:39;1.92;;;1.52;;
10479;SDS011;12789;42.610;23.040;2023-08-17T11:01:09;3.53;;;1.80;;
10479;SDS011;12789;42.610;23.040;2023-08-17T11:03:38;2.30;;;1.90;;
10479;SDS011;12789;42.610;23.040;2023-08-17T11:06:15;6.15;;;1.75;;
10479;SDS011;12789;42.610;23.040;2023-08-17T11:08:53;4.68;;;1.60;;
10479;SDS011;12789;42.610;23.040;2023-08-17T11:11:21;2.15;;;1.80;;
10479;SDS011;12789;42.610;23.040;2023-08-17T11:13:52;2.58;;;1.77;;
10479;SDS011;12789;42.610;23.040;2023-08-17T11:16:20;5.97;;;1.50;;
10479;SDS011;12789;42.610;23.040;2023-08-17T11:18:51;5.68;;;2.55;;
10479;SDS011;12789;42.610;23.040;2023-08-17T11:21:22;3.85;;;1.77;;
10479;SDS011;12789;42.610;23.040;2023-08-17T11:23:49;5.22;;;1.80;;
10479;SDS011;12789;42.610;23.040;2023-08-17T11:26:16;3.10;;;1.50;;
10479;SDS011;12789;42.610;23.040;2023-08-17T11:28:44;5.10;;;2.20;;
10479;SDS011;12789;42.610;23.040;2023-08-17T11:31:13;7.25;;;2.33;;
10479;SDS011;12789;42.610;23.040;2023-08-17T11:33:41;5.78;;;1.73;;
10479;SDS011;12789;42.610;23.040;2023-08-17T11:36:13;2.47;;;1.65;;
10479;SDS011;12789;42.610;23.040;2023-08-17T11:38:41;12.57;;;2.45;;
10479;SDS011;12789;42.610;23.040;2023-08-17T11:41:10;6.38;;;2.15;;
10479;SDS011;12789;42.610;23.040;2023-08-17T11:43:37;9.30;;;2.45;;
10479;SDS011;12789;42.610;23.040;2023-08-17T11:46:04;9.70;;;1.70;;
10479;SDS011;12789;42.610;23.040;2023-08-17T11:48:32;11.10;;;2.03;;
10479;SDS011;12789;42.610;23.040;2023-08-17T11:50:59;4.38;;;1.42;;
10479;SDS011;12789;42.610;23.040;2023-08-17T11:53:34;6.85;;;1.65;;
10479;SDS011;12789;42.610;23.040;2023-08-17T11:56:01;2.88;;;1.58;;
10479;SDS011;12789;42.610;23.040;2023-08-17T12:01:12;1.60;;;1.50;;
10479;SDS011;12789;42.610;23.040;2023-08-17T12:03:41;4.25;;;2.15;;
10479;SDS011;12789;42.610;23.040;2023-08-17T12:06:09;4.97;;;2.03;;
10479;SDS011;12789;42.610;23.040;2023-08-17T12:08:42;3.92;;;1.70;;
10479;SDS011;12789;42.610;23.040;2023-08-17T12:11:08;5.95;;;1.85;;
10479;SDS011;12789;42.610;23.040;2023-08-17T12:13:35;7.00;;;1.90;;
10479;SDS011;12789;42.610;23.040;2023-08-17T12:16:02;5.03;;;2.03;;
10479;SDS011;12789;42.610;23.040;2023-08-17T12:18:31;4.18;;;1.90;;
10479;SDS011;12789;42.610;23.040;2023-08-17T12:20:58;15.65;;;2.10;;
10479;SDS011;12789;42.610;23.040;2023-08-17T12:23:25;10.35;;;2.05;;
10479;SDS011;12789;42.610;23.040;2023-08-17T12:25:55;2.22;;;1.63;;
10479;SDS011;12789;42.610;23.040;2023-08-17T12:28:24;4.75;;;1.88;;
10479;SDS011;12789;42.610;23.040;2023-08-17T12:30:58;4.93;;;1.50;;
10479;SDS011;12789;42.610;23.040;2023-08-17T12:33:26;10.25;;;1.85;;
10479;SDS011;12789;42.610;23.040;2023-08-17T12:35:55;9.80;;;1.80;;
10479;SDS011;12789;42.610;23.040;2023-08-17T12:38:23;6.35;;;1.70;;
10479;SDS011;12789;42.610;23.040;2023-08-17T12:40:50;5.70;;;1.63;;
10479;SDS011;12789;42.610;23.040;2023-08-17T12:43:18;7.72;;;2.00;;
10479;SDS011;12789;42.610;23.040;2023-08-17T12:45:45;3.20;;;1.67;;
10479;SDS011;12789;42.610;23.040;2023-08-17T12:48:12;2.33;;;1.70;;
10479;SDS011;12789;42.610;23.040;2023-08-17T12:50:40;3.22;;;1.88;;
10479;SDS011;12789;42.610;23.040;2023-08-17T12:53:06;3.25;;;1.92;;
10479;SDS011;12789;42.610;23.040;2023-08-17T12:55:34;4.28;;;1.90;;
10479;SDS011;12789;42.610;23.040;2023-08-17T12:58:02;3.90;;;2.28;;
10479;SDS011;12789;42.610;23.040;2023-08-17T13:00:30;4.20;;;2.03;;
10479;SDS011;12789;42.610;23.040;2023-08-17T13:02:58;8.45;;;2.10;;
10479;SDS011;12789;42.610;23.040;2023-08-17T13:05:25;7.47;;;2.35;;
10479;SDS011;12789;42.610;23.040;2023-08-17T13:07:51;6.72;;;2.33;;
10479;SDS011;12789;42.610;23.040;2023-08-17T13:10:18;4.20;;;2.38;;
10479;SDS011;12789;42.610;23.040;2023-08-17T13:12:45;4.65;;;2.10;;
10479;SDS011;12789;42.610;23.040;2023-08-17T13:15:12;6.85;;;2.28;;
10479;SDS011;12789;42.610;23.040;2023-08-17T13:17:40;5.70;;;2.70;;
10479;SDS011;12789;42.610;23.040;2023-08-17T13:20:07;4.28;;;2.75;;
10479;SDS011;12789;42.610;23.040;2023-08-17T13:22:34;3.70;;;2.53;;
10479;SDS011;12789;42.610;23.040;2023-08-17T13:25:01;3.30;;;2.70;;
10479;SDS011;12789;42.610;23.040;2023-08-17T13:27:28;6.82;;;3.25;;
10479;SDS011;12789;42.610;23.040;2023-08-17T13:29:54;7.93;;;3.20;;
10479;SDS011;12789;42.610;23.040;2023-08-17T13:32:23;5.22;;;2.70;;
10479;SDS011;12789;42.610;23.040;2023-08-17T13:34:54;3.50;;;3.17;;
10479;SDS011;12789;42.610;23.040;2023-08-17T13:37:21;8.20;;;3.30;;
10479;SDS011;12789;42.610;23.040;2023-08-17T13:39:47;2.92;;;2.70;;
10479;SDS011;12789;42.610;23.040;2023-08-17T13:42:15;4.10;;;2.58;;
10479;SDS011;12789;42.610;23.040;2023-08-17T13:44:42;3.92;;;2.60;;
10479;SDS011;12789;42.610;23.040;2023-08-17T13:47:10;4.78;;;2.60;;
10479;SDS011;12789;42.610;23.040;2023-08-17T13:49:42;4.93;;;2.72;;
10479;SDS011;12789;42.610;23.040;2023-08-17T13:52:15;2.92;;;2.38;;
10479;SDS011;12789;42.610;23.040;2023-08-17T13:54:42;8.07;;;2.78;;
10479;SDS011;12789;42.610;23.040;2023-08-17T13:57:10;7.90;;;2.80;;
10479;SDS011;12789;42.610;23.040;2023-08-17T13:59:37;4.00;;;3.33;;
10479;SDS011;12789;42.610;23.040;2023-08-17T14:02:09;6.88;;;3.40;;
10479;SDS011;12789;42.610;23.040;2023-08-17T14:04:35;10.27;;;2.80;;
10479;SDS011;12789;42.610;23.040;2023-08-17T14:07:02;2.67;;;2.47;;
10479;SDS011;12789;42.610;23.040;2023-08-17T14:09:38;6.65;;;2.47;;
10479;SDS011;12789;42.610;23.040;2023-08-17T14:12:06;2.60;;;2.40;;
10479;SDS011;12789;42.610;23.040;2023-08-17T14:14:32;6.10;;;3.42;;
10479;SDS011;12789;42.610;23.040;2023-08-17T14:17:00;4.53;;;2.70;;
10479;SDS011;12789;42.610;23.040;2023-08-17T14:19:27;8.98;;;2.90;;
10479;SDS011;12789;42.610;23.040;2023-08-17T14:21:54;6.35;;;2.80;;
10479;SDS011;12789;42.610;23.040;2023-08-17T14:24:26;6.55;;;2.45;;
10479;SDS011;12789;42.610;23.040;2023-08-17T14:26:54;6.72;;;2.53;;
10479;SDS011;12789;42.610;23.040;2023-08-17T14:29:22;11.50;;;3.05;;
10479;SDS011;12789;42.610;23.040;2023-08-17T14:31:48;12.52;;;3.03;;